createdAt,value
2023-03-20T00:01:17.562Z,99840.66
2023-03-20T00:03:46.200Z,99834.77
2023-03-20T00:06:21.976Z,99831.86
2023-03-20T00:08:52.756Z,99827.55
2023-03-20T00:11:49.981Z,99820.08
2023-03-20T00:14:20.704Z,99816.42
2023-03-20T00:16:49.517Z,99810.98
2023-03-20T00:19:25.674Z,99813.82
2023-03-20T00:21:55.109Z,99813.15
2023-03-20T00:24:23.686Z,99810.56
2023-03-20T00:27:12.929Z,99807.05
2023-03-20T00:29:42.850Z,99802.19
2023-03-20T00:32:13.318Z,99804.79
2023-03-20T00:34:43.812Z,99805.69
2023-03-20T00:37:14.737Z,99803.59
2023-03-20T00:39:46.812Z,99798.95
2023-03-20T00:42:25.118Z,99793.96
2023-03-20T00:47:52.294Z,99795.47
2023-03-20T00:50:23.725Z,99794.60
2023-03-20T00:52:52.427Z,99790.43
2023-03-20T00:55:22.051Z,99791.12
2023-03-20T00:58:10.791Z,99790.91
2023-03-20T01:00:42.195Z,99790.20
2023-03-20T01:03:32.431Z,99787.08
2023-03-20T01:06:01.116Z,99784.33
2023-03-20T01:08:30.419Z,99784.39
2023-03-20T01:10:59.210Z,99785.61
2023-03-20T01:13:29.741Z,99781.91
2023-03-20T01:15:58.952Z,99783.40
2023-03-20T01:18:27.737Z,99783.63
2023-03-20T01:20:57.126Z,99786.01
2023-03-20T01:23:27.043Z,99787.31
2023-03-20T01:25:57.670Z,99786.16
2023-03-20T01:28:32.638Z,99788.29
2023-03-20T01:31:01.086Z,99788.30
2023-03-20T01:33:50.762Z,99786.94
2023-03-20T01:36:22.240Z,99790.83
2023-03-20T01:38:56.524Z,99787.56
2023-03-20T01:41:26.753Z,99786.71
2023-03-20T01:43:55.542Z,99786.98
2023-03-20T01:46:28.750Z,99783.85
2023-03-20T01:49:28.589Z,99780.49
2023-03-20T01:52:02.265Z,99775.67
2023-03-20T01:54:37.497Z,99775.86
2023-03-20T01:57:20.591Z,99780.91
2023-03-20T01:59:58.549Z,99777.13
2023-03-20T02:02:32.351Z,99777.06
2023-03-20T02:05:04.140Z,99774.73
2023-03-20T02:07:33.447Z,99773.07
2023-03-20T02:10:11.519Z,99772.72
2023-03-20T02:12:57.795Z,99768.19
2023-03-20T02:15:35.844Z,99760.59
2023-03-20T02:18:14.221Z,99759.73
2023-03-20T02:21:04.415Z,99761.23
2023-03-20T02:24:18.863Z,99752.55
2023-03-20T02:27:20.522Z,99750.55
2023-03-20T02:30:01.701Z,99754.09
2023-03-20T02:32:56.237Z,99757.20
2023-03-20T02:35:51.292Z,99757.30
2023-03-20T02:38:35.667Z,99760.52
2023-03-20T02:41:10.148Z,99765.02
2023-03-20T02:43:49.099Z,99762.33
2023-03-20T02:46:28.266Z,99761.20
2023-03-20T02:49:11.162Z,99764.33
2023-03-20T02:51:48.749Z,99762.06
2023-03-20T02:54:27.264Z,99754.45
2023-03-20T02:57:04.461Z,99750.14
2023-03-20T02:59:52.081Z,99750.35
2023-03-20T03:02:23.952Z,99751.95
2023-03-20T03:05:01.798Z,99747.71
2023-03-20T03:07:33.091Z,99747.33
2023-03-20T03:10:08.446Z,99748.27
2023-03-20T03:12:42.547Z,99744.99
2023-03-20T03:15:15.849Z,99746.08
2023-03-20T03:17:50.067Z,99746.48
2023-03-20T03:20:32.776Z,99748.89
2023-03-20T03:23:02.285Z,99750.88
2023-03-20T03:25:40.591Z,99749.58
2023-03-20T03:28:23.818Z,99744.39
2023-03-20T03:30:53.818Z,99743.78
2023-03-20T03:33:33.072Z,99743.93
2023-03-20T03:36:27.765Z,99746.38
2023-03-20T03:38:59.321Z,99742.37
2023-03-20T03:41:50.739Z,99743.89
2023-03-20T03:44:31.920Z,99738.48
2023-03-20T03:47:08.695Z,99734.21
2023-03-20T03:49:39.747Z,99729.73
2023-03-20T03:52:14.223Z,99729.11
2023-03-20T03:54:50.019Z,99729.48
2023-03-20T03:57:37.133Z,99729.35
2023-03-20T04:00:12.201Z,99730.81
2023-03-20T04:02:44.338Z,99729.21
2023-03-20T04:05:17.478Z,99728.50
2023-03-20T04:07:47.926Z,99725.85
2023-03-20T04:10:16.735Z,99728.01
2023-03-20T04:12:55.475Z,99730.34
2023-03-20T04:15:24.157Z,99731.13
2023-03-20T04:17:52.641Z,99724.40
2023-03-20T04:20:21.023Z,99726.07
2023-03-20T04:22:51.355Z,99732.91
2023-03-20T04:25:22.747Z,99731.39
2023-03-20T04:27:54.656Z,99730.63
2023-03-20T04:30:48.431Z,99728.66
2023-03-20T04:33:24.695Z,99726.46
2023-03-20T04:36:25.756Z,99724.39
2023-03-20T04:38:57.517Z,99721.03
2023-03-20T04:41:26.905Z,99722.55
2023-03-20T04:43:58.257Z,99717.68
2023-03-20T04:46:27.553Z,99720.11
2023-03-20T04:48:56.241Z,99718.60
2023-03-20T04:51:28.717Z,99716.19
2023-03-20T04:53:57.403Z,99723.76
2023-03-20T04:56:31.316Z,99725.45
2023-03-20T04:59:19.975Z,99732.88
2023-03-20T05:01:50.192Z,99731.67
2023-03-20T05:04:19.623Z,99730.71
2023-03-20T05:06:49.612Z,99734.52
2023-03-20T05:09:20.552Z,99737.15
2023-03-20T05:11:49.749Z,99730.58
2023-03-20T05:14:44.239Z,99735.59
2023-03-20T05:17:27.884Z,99732.73
2023-03-20T05:20:15.537Z,99735.06
2023-03-20T05:22:57.915Z,99741.81
2023-03-20T05:25:55.705Z,99743.42
2023-03-20T05:28:29.942Z,99735.96
2023-03-20T05:31:17.441Z,99737.73
2023-03-20T05:34:03.319Z,99735.82
2023-03-20T05:36:57.802Z,99737.12
2023-03-20T05:39:32.636Z,99740.55
2023-03-20T05:42:17.945Z,99741.85
2023-03-20T05:45:10.491Z,99737.24
2023-03-20T05:47:57.575Z,99749.59
2023-03-20T05:50:29.027Z,99752.27
2023-03-20T05:53:08.669Z,99753.48
2023-03-20T05:55:55.995Z,99760.98
2023-03-20T05:58:47.526Z,99760.39
2023-03-20T06:01:39.551Z,99758.84
2023-03-20T06:04:28.102Z,99760.14
2023-03-20T06:07:10.512Z,99758.23
2023-03-20T06:09:41.144Z,99761.23
2023-03-20T06:12:13.005Z,99760.34
2023-03-20T06:14:41.793Z,99759.31
2023-03-20T06:17:13.245Z,99754.73
2023-03-20T06:19:45.003Z,99758.50
2023-03-20T06:22:13.600Z,99756.05
2023-03-20T06:24:46.677Z,99758.03
2023-03-20T06:27:16.202Z,99756.08
2023-03-20T06:29:48.359Z,99750.60
2023-03-20T06:32:19.706Z,99751.17
2023-03-20T06:34:50.126Z,99750.80
2023-03-20T06:37:19.700Z,99744.30
2023-03-20T06:39:48.423Z,99743.98
2023-03-20T06:42:16.904Z,99742.48
2023-03-20T06:44:45.801Z,99737.25
2023-03-20T06:47:28.743Z,99737.13
2023-03-20T06:49:58.644Z,99739.45
2023-03-20T06:52:27.321Z,99733.89
2023-03-20T06:55:19.570Z,99734.39
2023-03-20T06:57:47.989Z,99730.34
2023-03-20T07:00:18.331Z,99731.81
2023-03-20T07:02:47.568Z,99739.38
2023-03-20T07:05:16.659Z,99741.31
2023-03-20T07:07:45.457Z,99738.55
2023-03-20T07:10:14.554Z,99736.17
2023-03-20T07:12:48.790Z,99735.48
2023-03-20T07:15:34.647Z,99733.29
2023-03-20T07:18:03.463Z,99731.61
2023-03-20T07:20:34.815Z,99736.07
2023-03-20T07:23:03.696Z,99734.57
2023-03-20T07:25:42.151Z,99733.73
2023-03-20T07:28:14.690Z,99738.98
2023-03-20T07:30:45.425Z,99731.29
2023-03-20T07:33:17.491Z,99730.67
2023-03-20T07:35:46.732Z,99730.61
2023-03-20T07:38:15.583Z,99726.92
2023-03-20T07:40:56.151Z,99729.67
2023-03-20T07:43:25.661Z,99727.25
2023-03-20T07:46:26.849Z,99720.31
2023-03-20T07:48:56.926Z,99719.44
2023-03-20T07:51:25.841Z,99711.02
2023-03-20T07:53:54.402Z,99712.66
2023-03-20T07:56:22.790Z,99709.73
2023-03-20T07:58:52.700Z,99710.42
2023-03-20T08:01:21.386Z,99707.65
2023-03-20T08:03:49.901Z,99706.65
2023-03-20T08:06:29.515Z,99703.26
2023-03-20T08:08:59.124Z,99698.79
2023-03-20T08:11:28.638Z,99696.95
2023-03-20T08:13:58.038Z,99698.48
2023-03-20T08:16:26.474Z,99697.39
2023-03-20T08:19:03.622Z,99693.59
2023-03-20T08:21:32.711Z,99695.27
2023-03-20T08:24:01.700Z,99690.41
2023-03-20T08:26:32.029Z,99688.67
2023-03-20T08:29:00.817Z,99685.24
2023-03-20T08:31:31.861Z,99679.65
2023-03-20T08:34:00.445Z,99678.07
2023-03-20T08:36:29.235Z,99673.23
2023-03-20T08:38:57.621Z,99670.92
2023-03-20T08:41:26.303Z,99675.95
2023-03-20T08:43:54.638Z,99675.51
2023-03-20T08:46:24.061Z,99672.29
2023-03-20T08:48:52.875Z,99674.98
2023-03-20T08:51:21.566Z,99675.14
2023-03-20T08:53:50.152Z,99675.67
2023-03-20T08:56:18.794Z,99674.31
2023-03-20T08:58:48.236Z,99675.08
2023-03-20T09:01:16.756Z,99669.80
2023-03-20T09:03:45.725Z,99671.64
2023-03-20T09:06:14.298Z,99669.27
2023-03-20T09:08:42.989Z,99668.33
2023-03-20T09:11:11.876Z,99667.77
2023-03-20T09:13:41.382Z,99666.00
2023-03-20T09:16:10.590Z,99667.04
2023-03-20T09:18:41.111Z,99672.22
2023-03-20T09:21:09.696Z,99669.19
2023-03-20T09:23:38.077Z,99660.11
2023-03-20T09:26:07.584Z,99654.25
2023-03-20T09:28:36.577Z,99652.29
2023-03-20T09:31:05.830Z,99649.22
2023-03-20T09:33:34.674Z,99649.48
2023-03-20T09:36:03.534Z,99646.48
2023-03-20T09:38:32.656Z,99643.53
2023-03-20T09:41:01.740Z,99637.11
2023-03-20T09:43:48.370Z,99630.44
2023-03-20T09:46:29.084Z,99625.39
2023-03-20T09:49:29.774Z,99624.27
2023-03-20T09:51:59.475Z,99627.00
2023-03-20T09:54:50.995Z,99626.14
2023-03-20T09:57:29.979Z,99618.48
2023-03-20T10:00:01.795Z,99619.61
2023-03-20T10:02:45.957Z,99620.86
2023-03-20T10:05:23.337Z,99614.03
2023-03-20T10:07:55.190Z,99609.00
2023-03-20T10:10:48.658Z,99604.55
2023-03-20T10:13:27.999Z,99607.17
2023-03-20T10:16:02.282Z,99607.03
2023-03-20T10:18:34.376Z,99606.77
2023-03-20T10:21:19.060Z,99599.55
2023-03-20T10:23:59.194Z,99597.28
2023-03-20T10:26:27.674Z,99599.85
2023-03-20T10:29:00.264Z,99605.56
2023-03-20T10:31:43.882Z,99595.38
2023-03-20T10:34:32.263Z,99593.91
2023-03-20T10:37:39.738Z,99589.30
2023-03-20T10:40:28.307Z,99590.14
2023-03-20T10:42:59.768Z,99580.17
2023-03-20T10:45:40.827Z,99579.17
2023-03-20T10:48:39.611Z,99575.89
2023-03-20T10:51:11.581Z,99570.29
2023-03-20T10:53:48.659Z,99565.59
2023-03-20T10:56:26.065Z,99559.80
2023-03-20T10:58:58.630Z,99562.59
2023-03-20T11:01:28.374Z,99557.95
2023-03-20T11:03:57.482Z,99552.35
2023-03-20T11:06:29.092Z,99550.25
2023-03-20T11:08:58.604Z,99552.00
2023-03-20T11:11:29.439Z,99548.64
2023-03-20T11:13:58.948Z,99547.11
2023-03-20T11:16:33.320Z,99539.84
2023-03-20T11:19:09.011Z,99546.29
2023-03-20T11:21:50.939Z,99544.57
2023-03-20T11:24:29.944Z,99536.80
2023-03-20T11:27:14.502Z,99536.09
2023-03-20T11:29:45.848Z,99536.20
2023-03-20T11:32:54.247Z,99531.89
2023-03-20T11:35:26.751Z,99530.09
2023-03-20T11:37:56.253Z,99523.10
2023-03-20T11:40:31.991Z,99520.02
2023-03-20T11:43:00.997Z,99518.95
2023-03-20T11:45:37.412Z,99522.35
2023-03-20T11:48:07.487Z,99519.31
2023-03-20T11:50:37.866Z,99514.20
2023-03-20T11:53:22.879Z,99509.83
2023-03-20T11:56:12.384Z,99504.56
2023-03-20T11:58:49.753Z,99507.30
2023-03-20T12:01:18.437Z,99502.62
2023-03-20T12:03:52.196Z,99502.65
2023-03-20T12:06:22.791Z,99501.10
2023-03-20T12:09:03.341Z,99493.83
2023-03-20T12:11:49.848Z,99494.90
2023-03-20T12:14:39.118Z,99487.57
2023-03-20T12:17:28.391Z,99492.89
2023-03-20T12:20:06.573Z,99487.73
2023-03-20T12:22:43.194Z,99485.25
2023-03-20T12:25:22.513Z,99487.54
2023-03-20T12:27:58.227Z,99457.96
2023-03-20T12:30:37.329Z,99471.52
2023-03-20T12:33:12.594Z,99482.61
2023-03-20T12:35:45.047Z,99479.75
2023-03-20T12:38:25.616Z,99484.42
2023-03-20T12:41:15.882Z,99477.00
2023-03-20T12:43:56.038Z,99474.72
2023-03-20T12:46:33.372Z,99472.90
2023-03-20T12:49:04.884Z,99473.83
2023-03-20T12:51:37.880Z,99466.66
2023-03-20T12:54:56.138Z,99462.41
2023-03-20T12:57:46.279Z,99457.42
2023-03-20T13:00:17.386Z,99453.08
2023-03-20T13:05:34.908Z,99445.39
2023-03-20T13:08:18.550Z,99448.98
2023-03-20T13:10:57.905Z,99445.34
2023-03-20T13:13:43.063Z,99439.51
2023-03-20T13:16:14.693Z,99435.90
2023-03-20T13:18:51.407Z,99438.34
2023-03-20T13:21:25.241Z,99435.66
2023-03-20T13:24:02.604Z,99434.36
2023-03-20T13:26:41.534Z,99435.52
2023-03-20T13:29:16.260Z,99428.02
2023-03-20T13:31:54.167Z,99434.79
2023-03-20T13:34:48.147Z,99436.77
2023-03-20T13:37:23.993Z,99439.71
2023-03-20T13:40:15.239Z,99436.98
2023-03-20T13:43:02.649Z,99436.77
2023-03-20T13:45:34.611Z,99434.66
2023-03-20T13:48:37.810Z,99433.02
2023-03-20T13:51:37.432Z,99426.34
2023-03-20T13:54:30.922Z,99426.40
2023-03-20T13:57:22.840Z,99422.91
2023-03-20T14:00:00.146Z,99419.80
2023-03-20T14:02:41.400Z,99413.36
2023-03-20T14:05:16.951Z,99411.89
2023-03-20T14:07:58.157Z,99407.84
2023-03-20T14:10:27.025Z,99410.92
2023-03-20T14:13:02.744Z,99412.70
2023-03-20T14:15:36.197Z,99412.55
2023-03-20T14:18:06.953Z,99408.52
2023-03-20T14:20:44.210Z,99407.05
2023-03-20T14:23:18.188Z,99404.93
2023-03-20T14:25:46.803Z,99410.27
2023-03-20T14:28:26.038Z,99399.71
2023-03-20T14:31:37.873Z,99393.56
2023-03-20T14:34:13.183Z,99390.68
2023-03-20T14:37:01.851Z,99394.88
2023-03-20T14:39:42.306Z,99400.23
2023-03-20T14:42:20.106Z,99398.08
2023-03-20T14:45:17.364Z,99395.52
2023-03-20T14:47:50.558Z,99392.38
2023-03-20T14:50:23.778Z,99394.02
2023-03-20T14:53:08.210Z,99393.95
2023-03-20T14:55:49.200Z,99390.75
2023-03-20T14:58:53.520Z,99391.61
2023-03-20T15:01:21.963Z,99395.56
2023-03-20T15:04:09.731Z,99390.59
2023-03-20T15:06:54.919Z,99386.61
2023-03-20T15:09:24.008Z,99394.94
2023-03-20T15:11:52.896Z,99397.02
2023-03-20T15:14:26.643Z,99393.35
2023-03-20T15:16:59.505Z,99398.05
2023-03-20T15:19:28.548Z,99393.86
2023-03-20T15:21:57.481Z,99402.23
2023-03-20T15:24:30.276Z,99401.27
2023-03-20T15:27:00.754Z,99398.31
2023-03-20T15:29:29.907Z,99398.19
2023-03-20T15:32:12.972Z,99396.82
2023-03-20T15:34:43.263Z,99392.90
2023-03-20T15:37:16.902Z,99400.60
2023-03-20T15:39:52.116Z,99399.13
2023-03-20T15:42:22.031Z,99406.94
2023-03-20T15:44:52.450Z,99400.94
2023-03-20T15:47:22.589Z,99402.97
2023-03-20T15:49:58.692Z,99404.86
2023-03-20T15:52:43.876Z,99408.17
2023-03-20T15:55:16.697Z,99405.05
2023-03-20T15:57:47.560Z,99407.84
2023-03-20T16:00:19.217Z,99416.06
2023-03-20T16:02:48.713Z,99412.22
2023-03-20T16:05:18.101Z,99409.98
2023-03-20T16:07:47.709Z,99409.95
2023-03-20T16:10:21.729Z,99413.37
2023-03-20T16:12:54.921Z,99411.61
2023-03-20T16:15:27.929Z,99411.45
2023-03-20T16:17:58.133Z,99412.77
2023-03-20T16:20:29.482Z,99413.21
2023-03-20T16:23:02.071Z,99411.16
2023-03-20T16:25:31.078Z,99410.89
2023-03-20T16:27:59.436Z,99408.05
2023-03-20T16:30:31.207Z,99395.34
2023-03-20T16:33:02.046Z,99399.21
2023-03-20T16:35:38.842Z,99402.25
2023-03-20T16:38:36.496Z,99407.01
2023-03-20T16:41:16.682Z,99409.66
2023-03-20T16:43:51.555Z,99399.77
2023-03-20T16:46:24.524Z,99412.07
2023-03-20T16:48:57.037Z,99411.11
2023-03-20T16:51:29.788Z,99412.50
2023-03-20T16:54:01.596Z,99407.52
2023-03-20T16:56:30.080Z,99404.05
2023-03-20T16:58:58.549Z,99398.55
2023-03-20T17:01:28.344Z,99396.83
2023-03-20T17:04:12.127Z,99394.96
2023-03-20T17:06:45.095Z,99392.47
2023-03-20T17:09:21.358Z,99394.42
2023-03-20T17:11:51.796Z,99392.17
2023-03-20T17:14:22.234Z,99387.12
2023-03-20T17:16:53.683Z,99383.98
2023-03-20T17:19:22.807Z,99386.17
2023-03-20T17:21:51.389Z,99386.64
2023-03-20T17:24:20.148Z,99383.39
2023-03-20T17:26:56.002Z,99385.23
2023-03-20T17:29:24.493Z,99388.69
2023-03-20T17:31:53.156Z,99390.63
2023-03-20T17:34:21.451Z,99393.75
2023-03-20T17:36:50.035Z,99390.59
2023-03-20T17:39:20.527Z,99388.95
2023-03-20T17:41:49.047Z,99387.46
2023-03-20T17:44:17.533Z,99387.66
2023-03-20T17:47:05.982Z,99392.23
2023-03-20T17:49:34.672Z,99390.80
2023-03-20T17:52:03.256Z,99390.48
2023-03-20T17:54:33.277Z,99389.75
2023-03-20T17:57:02.515Z,99390.72
2023-03-20T17:59:31.672Z,99392.95
2023-03-20T18:02:00.137Z,99390.15
2023-03-20T18:04:28.846Z,99390.60
2023-03-20T18:06:58.144Z,99384.42
2023-03-20T18:09:30.621Z,99378.41
2023-03-20T18:11:59.513Z,99376.92
2023-03-20T18:14:31.168Z,99381.51
2023-03-20T18:16:59.653Z,99381.29
2023-03-20T18:19:29.265Z,99375.11
2023-03-20T18:21:57.649Z,99377.39
2023-03-20T18:24:27.064Z,99376.48
2023-03-20T18:26:59.943Z,99376.21
2023-03-20T18:29:28.531Z,99372.58
2023-03-20T18:31:56.897Z,99382.04
2023-03-20T18:34:27.532Z,99378.23
2023-03-20T18:36:56.728Z,99373.58
2023-03-20T18:39:29.407Z,99369.40
2023-03-20T18:41:58.405Z,99370.43
2023-03-20T18:44:27.190Z,99371.80
2023-03-20T18:46:55.547Z,99370.37
2023-03-20T18:49:24.462Z,99372.27
2023-03-20T18:51:54.292Z,99366.53
2023-03-20T18:54:23.371Z,99365.91
2023-03-20T18:57:00.076Z,99362.08
2023-03-20T18:59:29.666Z,99360.65
2023-03-20T19:01:58.090Z,99361.40
2023-03-20T19:04:27.368Z,99368.13
2023-03-20T19:06:57.561Z,99367.75
2023-03-20T19:09:26.870Z,99367.61
2023-03-20T19:11:55.557Z,99361.25
2023-03-20T19:14:26.085Z,99359.02
2023-03-20T19:16:58.766Z,99359.78
2023-03-20T19:19:30.826Z,99358.53
2023-03-20T19:21:59.203Z,99359.66
2023-03-20T19:24:34.456Z,99362.29
2023-03-20T19:27:03.032Z,99357.98
2023-03-20T19:29:31.618Z,99353.87
2023-03-20T19:32:00.185Z,99357.58
2023-03-20T19:35:10.948Z,99356.28
2023-03-20T19:37:17.744Z,99350.77
2023-03-20T19:39:46.327Z,99351.46
2023-03-20T19:42:46.974Z,99352.32
2023-03-20T19:45:23.916Z,99353.34
2023-03-20T19:47:52.834Z,99351.63
2023-03-20T19:50:26.953Z,99347.95
2023-03-20T19:52:56.869Z,99346.80
2023-03-20T19:55:25.758Z,99341.13
2023-03-20T19:57:56.814Z,99340.52
2023-03-20T20:03:21.329Z,99336.86
2023-03-20T20:05:51.179Z,99330.30
2023-03-20T20:08:30.635Z,99325.36
2023-03-20T20:11:12.155Z,99325.51
2023-03-20T20:14:03.646Z,99324.96
2023-03-20T20:16:30.966Z,99327.88
2023-03-20T20:19:04.138Z,99329.39
2023-03-20T20:24:23.349Z,99333.02
2023-03-20T20:27:15.240Z,99331.02
2023-03-20T20:29:49.452Z,99327.27
2023-03-20T20:32:24.495Z,99326.98
2023-03-20T20:40:32.973Z,99322.96
2023-03-20T20:43:02.928Z,99320.39
2023-03-20T20:45:43.875Z,99319.55
2023-03-20T20:48:13.032Z,99315.85
2023-03-20T20:50:43.596Z,99317.38
2023-03-20T20:53:14.100Z,99311.01
2023-03-20T20:55:43.096Z,99308.94
2023-03-20T20:58:12.494Z,99307.09
2023-03-20T21:00:51.799Z,99309.52
2023-03-20T21:03:22.397Z,99305.73
2023-03-20T21:05:52.799Z,99307.13
2023-03-20T21:08:21.918Z,99303.42
2023-03-20T21:10:55.608Z,99302.67
2023-03-20T21:13:24.280Z,99301.98
2023-03-20T21:15:59.604Z,99297.06
2023-03-20T21:18:29.845Z,99295.61
2023-03-20T21:21:10.206Z,99294.66
2023-03-20T21:23:38.999Z,99293.34
2023-03-20T21:26:11.398Z,99288.36
2023-03-20T21:28:40.368Z,99280.27
2023-03-20T21:31:24.197Z,99286.38
2023-03-20T21:33:55.369Z,99287.30
2023-03-20T21:36:24.047Z,99286.13
2023-03-20T21:39:07.275Z,99285.23
2023-03-20T21:41:38.063Z,99279.53
2023-03-20T21:44:07.677Z,99277.63
2023-03-20T21:50:23.167Z,99273.75
2023-03-20T21:55:48.278Z,99271.80
2023-03-20T21:58:36.869Z,99266.70
2023-03-20T22:01:29.385Z,99266.23
2023-03-20T22:04:22.151Z,99266.55
2023-03-20T22:07:17.858Z,99266.27
2023-03-20T22:12:52.837Z,99263.02
2023-03-20T22:21:27.400Z,99264.73
2023-03-20T22:35:37.961Z,99245.87
2023-03-20T22:46:19.571Z,99244.23
2023-03-20T22:48:51.616Z,99239.90
2023-03-20T22:51:28.632Z,99239.03
2023-03-20T22:54:03.126Z,99239.98
2023-03-20T22:56:32.934Z,99239.48
2023-03-20T22:59:01.725Z,99239.60
2023-03-20T23:01:30.973Z,99234.12
2023-03-20T23:03:59.332Z,99231.30
2023-03-20T23:06:35.571Z,99231.21
2023-03-20T23:09:14.403Z,99233.23
2023-03-20T23:11:44.108Z,99235.66
2023-03-20T23:14:24.956Z,99234.21
2023-03-20T23:16:56.596Z,99228.16
2023-03-20T23:19:26.511Z,99223.95
2023-03-20T23:21:56.779Z,99225.73
2023-03-20T23:24:25.165Z,99230.95
2023-03-20T23:26:58.664Z,99228.19
2023-03-20T23:29:27.043Z,99226.37
2023-03-20T23:31:55.761Z,99228.91
2023-03-20T23:34:29.026Z,99225.09
2023-03-20T23:36:57.461Z,99226.95
2023-03-20T23:39:26.196Z,99224.33
2023-03-20T23:42:12.176Z,99219.48
2023-03-20T23:44:49.904Z,99215.38
2023-03-20T23:47:27.646Z,99212.39
2023-03-20T23:49:58.479Z,99205.67
2023-03-20T23:52:27.525Z,99202.52
2023-03-20T23:54:56.417Z,99197.91
2023-03-20T23:57:24.798Z,99203.09
2023-03-20T23:59:53.389Z,99199.63
